createdAt,value
2023-05-19T00:00:00.857Z,15.08
2023-05-19T00:03:10.098Z,21.65
2023-05-19T00:06:18.079Z,15.65
2023-05-19T00:09:25.150Z,14.30
2023-05-19T00:12:31.751Z,17.80
2023-05-19T00:15:39.480Z,16.45
2023-05-19T00:18:44.922Z,15.03
2023-05-19T00:21:50.695Z,17.00
2023-05-19T00:24:57.415Z,17.60
2023-05-19T00:28:05.757Z,20.23
2023-05-19T00:31:11.679Z,17.67
2023-05-19T00:34:18.487Z,20.92
2023-05-19T00:37:25.569Z,15.32
2023-05-19T00:40:32.719Z,18.12
2023-05-19T00:43:38.096Z,16.95
2023-05-19T00:46:45.065Z,18.87
2023-05-19T00:49:50.369Z,17.67
2023-05-19T00:52:57.133Z,16.95
2023-05-19T00:56:03.684Z,17.67
2023-05-19T00:59:10.342Z,17.90
2023-05-19T01:02:15.592Z,14.07
2023-05-19T01:05:22.731Z,18.45
2023-05-19T01:08:29.049Z,16.85
2023-05-19T01:11:36.071Z,17.65
2023-05-19T01:14:41.680Z,19.17
2023-05-19T01:18:14.096Z,17.15
2023-05-19T01:21:30.177Z,21.05
2023-05-19T01:24:56.701Z,15.68
2023-05-19T01:28:23.331Z,15.00
2023-05-19T01:31:32.189Z,19.98
2023-05-19T01:34:38.510Z,20.52
2023-05-19T01:37:45.341Z,15.78
2023-05-19T01:40:52.441Z,16.87
2023-05-19T01:43:57.721Z,19.42
2023-05-19T01:47:04.463Z,18.10
2023-05-19T01:50:10.449Z,17.27
2023-05-19T01:53:16.435Z,17.92
2023-05-19T01:56:23.858Z,18.23
2023-05-19T01:59:53.118Z,22.30
2023-05-19T02:03:23.473Z,16.60
2023-05-19T02:07:16.522Z,17.50
2023-05-19T02:10:37.342Z,16.73
2023-05-19T02:13:46.127Z,19.67
2023-05-19T02:16:51.412Z,20.65
2023-05-19T02:19:59.320Z,19.42
2023-05-19T02:23:05.951Z,21.37
2023-05-19T02:26:12.746Z,21.27
2023-05-19T02:29:19.336Z,20.70
2023-05-19T02:32:26.380Z,16.90
2023-05-19T02:35:32.958Z,16.25
2023-05-19T02:38:39.040Z,20.37
2023-05-19T02:41:44.585Z,20.77
2023-05-19T02:44:50.069Z,18.30
2023-05-19T02:47:56.659Z,17.70
2023-05-19T02:51:01.852Z,19.35
2023-05-19T02:54:07.713Z,18.12
2023-05-19T02:57:13.488Z,17.12
2023-05-19T03:00:21.146Z,21.70
2023-05-19T03:03:26.835Z,17.25
2023-05-19T03:06:33.483Z,17.73
2023-05-19T03:09:40.106Z,17.87
2023-05-19T03:12:46.109Z,21.30
2023-05-19T03:15:52.914Z,14.10
2023-05-19T03:18:58.775Z,17.12
2023-05-19T03:22:05.506Z,18.92
2023-05-19T03:25:12.198Z,17.95
2023-05-19T03:28:17.794Z,22.93
2023-05-19T03:31:24.198Z,20.90
2023-05-19T03:34:30.598Z,15.80
2023-05-19T03:37:35.845Z,15.85
2023-05-19T03:40:41.251Z,15.60
2023-05-19T03:43:47.513Z,16.73
2023-05-19T03:46:54.825Z,13.95
2023-05-19T03:50:01.706Z,18.50
2023-05-19T03:53:16.332Z,16.73
2023-05-19T03:56:23.847Z,15.55
2023-05-19T03:59:30.878Z,17.20
2023-05-19T04:02:37.159Z,15.83
2023-05-19T04:05:43.919Z,17.85
2023-05-19T04:08:51.521Z,17.77
2023-05-19T04:11:58.372Z,18.67
2023-05-19T04:15:06.036Z,16.45
2023-05-19T04:18:12.812Z,15.18
2023-05-19T04:21:18.437Z,21.33
2023-05-19T04:24:23.545Z,13.03
2023-05-19T04:27:29.969Z,15.48
2023-05-19T04:30:35.668Z,18.07
2023-05-19T04:33:42.250Z,15.58
2023-05-19T04:36:49.176Z,16.48
2023-05-19T04:39:55.309Z,16.67
2023-05-19T04:43:02.771Z,13.53
2023-05-19T04:46:10.383Z,15.68
2023-05-19T04:49:19.002Z,13.80
2023-05-19T04:52:26.941Z,19.35
2023-05-19T04:55:33.000Z,18.30
2023-05-19T04:58:41.843Z,17.55
2023-05-19T05:01:47.814Z,12.43
2023-05-19T05:04:53.876Z,16.23
2023-05-19T05:08:01.244Z,12.58
2023-05-19T05:11:10.311Z,18.80
2023-05-19T05:14:16.926Z,16.35
2023-05-19T05:17:27.718Z,13.32
2023-05-19T05:20:34.994Z,14.43
2023-05-19T05:23:41.036Z,12.88
2023-05-19T05:26:49.123Z,16.00
2023-05-19T05:29:56.450Z,19.75
2023-05-19T05:33:03.373Z,14.03
2023-05-19T05:36:11.728Z,14.50
2023-05-19T05:39:18.472Z,11.68
2023-05-19T05:42:29.553Z,10.93
2023-05-19T05:45:35.439Z,12.90
2023-05-19T05:48:41.886Z,13.30
2023-05-19T05:52:04.307Z,17.35
2023-05-19T05:54:59.346Z,10.68
2023-05-19T05:58:08.621Z,10.80
2023-05-19T06:01:18.680Z,23.95
2023-05-19T06:04:26.075Z,11.80
2023-05-19T06:07:31.751Z,12.20
2023-05-19T06:10:39.193Z,9.23
2023-05-19T06:13:46.087Z,11.18
2023-05-19T06:16:54.946Z,9.23
2023-05-19T06:20:02.203Z,8.73
2023-05-19T06:23:08.529Z,16.45
2023-05-19T06:26:14.102Z,10.53
2023-05-19T06:29:19.515Z,10.08
2023-05-19T06:32:26.461Z,9.30
2023-05-19T06:35:33.244Z,9.18
2023-05-19T06:38:40.161Z,13.22
2023-05-19T06:41:46.428Z,6.72
2023-05-19T06:44:59.792Z,9.90
2023-05-19T06:48:06.178Z,10.15
2023-05-19T06:51:12.387Z,7.87
2023-05-19T06:54:23.140Z,9.38
2023-05-19T06:57:29.130Z,6.75
2023-05-19T07:00:35.804Z,5.28
2023-05-19T07:03:42.744Z,11.38
2023-05-19T07:06:48.762Z,9.23
2023-05-19T07:09:55.088Z,14.83
2023-05-19T07:13:02.203Z,8.95
2023-05-19T07:16:08.007Z,11.80
2023-05-19T07:19:16.325Z,6.28
2023-05-19T07:22:24.335Z,8.65
2023-05-19T07:25:29.237Z,10.28
2023-05-19T07:28:36.505Z,6.85
2023-05-19T07:31:43.495Z,6.78
2023-05-19T07:34:51.656Z,6.47
2023-05-19T07:38:00.250Z,11.40
2023-05-19T07:41:05.561Z,7.37
2023-05-19T07:44:13.930Z,9.78
2023-05-19T07:47:19.748Z,4.45
2023-05-19T07:50:24.947Z,6.72
2023-05-19T07:53:30.604Z,5.67
2023-05-19T07:56:37.501Z,9.98
2023-05-19T07:59:44.689Z,9.68
2023-05-19T08:02:54.171Z,6.17
2023-05-19T08:06:01.576Z,4.53
2023-05-19T08:09:09.034Z,5.60
2023-05-19T08:12:15.017Z,9.63
2023-05-19T08:15:24.351Z,10.70
2023-05-19T08:18:31.975Z,7.30
2023-05-19T08:21:39.325Z,5.08
2023-05-19T08:24:45.901Z,8.98
2023-05-19T08:27:52.210Z,4.28
2023-05-19T08:30:58.896Z,8.48
2023-05-19T08:34:06.171Z,7.12
2023-05-19T08:37:13.942Z,4.97
2023-05-19T08:40:23.157Z,6.17
2023-05-19T08:43:28.756Z,15.50
2023-05-19T08:46:38.363Z,4.47
2023-05-19T08:49:43.349Z,7.20
2023-05-19T08:53:21.059Z,6.35
2023-05-19T08:56:21.588Z,8.60
2023-05-19T08:59:29.579Z,8.80
2023-05-19T09:02:36.063Z,6.87
2023-05-19T09:05:42.483Z,13.28
2023-05-19T09:08:49.542Z,8.30
2023-05-19T09:11:55.816Z,5.47
2023-05-19T09:15:01.103Z,7.30
2023-05-19T09:18:09.525Z,8.58
2023-05-19T09:21:17.654Z,10.78
2023-05-19T09:24:24.332Z,5.33
2023-05-19T09:27:38.085Z,6.90
2023-05-19T09:30:45.081Z,6.45
2023-05-19T09:33:56.845Z,5.87
2023-05-19T09:37:02.729Z,5.87
2023-05-19T09:40:11.217Z,5.17
2023-05-19T09:43:22.626Z,5.58
2023-05-19T09:46:30.561Z,6.65
2023-05-19T09:49:39.855Z,5.95
2023-05-19T09:52:45.326Z,8.70
2023-05-19T09:55:52.188Z,8.30
2023-05-19T09:59:01.154Z,10.48
2023-05-19T10:02:10.124Z,5.72
2023-05-19T10:05:16.866Z,6.35
2023-05-19T10:08:24.395Z,8.40
2023-05-19T10:11:31.099Z,4.12
2023-05-19T10:14:41.151Z,4.10
2023-05-19T10:17:46.378Z,15.53
2023-05-19T10:20:53.674Z,6.92
2023-05-19T10:24:00.052Z,9.08
2023-05-19T10:27:18.129Z,11.08
2023-05-19T10:30:34.749Z,12.73
2023-05-19T10:34:10.485Z,8.45
2023-05-19T10:37:44.995Z,6.50
2023-05-19T10:41:13.066Z,6.90
2023-05-19T10:44:40.629Z,6.03
2023-05-19T10:47:55.203Z,7.03
2023-05-19T10:51:17.147Z,4.70
2023-05-19T10:54:28.917Z,5.83
2023-05-19T10:57:43.206Z,9.55
2023-05-19T11:00:51.890Z,5.55
2023-05-19T11:04:09.665Z,5.80
2023-05-19T11:07:18.631Z,7.28
2023-05-19T11:10:30.157Z,7.40
2023-05-19T11:13:37.450Z,10.80
2023-05-19T11:16:50.722Z,4.58
2023-05-19T11:20:12.087Z,8.75
2023-05-19T11:23:30.137Z,11.57
2023-05-19T11:26:56.985Z,5.20
2023-05-19T11:30:06.813Z,5.08
2023-05-19T11:33:13.262Z,7.62
2023-05-19T11:36:19.019Z,5.90
2023-05-19T11:39:24.574Z,3.45
2023-05-19T11:42:31.549Z,7.47
2023-05-19T11:45:41.196Z,9.03
2023-05-19T11:48:48.748Z,5.92
2023-05-19T11:51:55.926Z,8.00
2023-05-19T11:55:03.606Z,6.53
2023-05-19T11:58:13.501Z,9.03
2023-05-19T12:01:21.010Z,5.45
2023-05-19T12:04:26.411Z,4.90
2023-05-19T12:07:38.780Z,8.30
2023-05-19T12:10:46.571Z,6.87
2023-05-19T12:13:54.736Z,4.22
2023-05-19T12:17:02.548Z,6.80
2023-05-19T12:20:08.512Z,8.30
2023-05-19T12:23:15.060Z,9.80
2023-05-19T12:26:21.784Z,8.30
2023-05-19T12:29:28.373Z,6.58
2023-05-19T12:32:33.642Z,6.70
2023-05-19T12:35:44.586Z,7.78
2023-05-19T12:38:50.360Z,7.72
2023-05-19T12:42:01.351Z,9.05
2023-05-19T12:45:08.463Z,7.00
2023-05-19T12:48:13.486Z,10.13
2023-05-19T12:51:20.531Z,9.95
2023-05-19T12:54:27.369Z,11.45
2023-05-19T12:57:35.499Z,8.35
2023-05-19T13:00:43.448Z,6.70
2023-05-19T13:03:57.067Z,10.63
2023-05-19T13:07:03.094Z,7.90
2023-05-19T13:10:10.416Z,6.58
2023-05-19T13:13:19.054Z,7.30
2023-05-19T13:16:26.577Z,6.12
2023-05-19T13:19:33.976Z,13.25
2023-05-19T13:22:41.920Z,7.80
2023-05-19T13:25:49.019Z,8.20
2023-05-19T13:28:54.131Z,5.62
2023-05-19T13:32:03.636Z,6.60
2023-05-19T13:35:09.412Z,8.50
2023-05-19T13:38:15.922Z,9.25
2023-05-19T13:41:22.766Z,5.03
2023-05-19T13:44:27.970Z,6.33
2023-05-19T13:47:33.143Z,7.17
2023-05-19T13:50:40.762Z,6.10
2023-05-19T13:53:46.868Z,7.22
2023-05-19T13:56:55.620Z,6.80
2023-05-19T14:00:02.639Z,8.58
2023-05-19T14:03:14.667Z,7.67
2023-05-19T14:06:21.676Z,7.72
2023-05-19T14:09:27.994Z,8.20
2023-05-19T14:12:45.052Z,9.58
2023-05-19T14:15:44.696Z,9.75
2023-05-19T14:18:51.522Z,5.90
2023-05-19T14:21:58.527Z,9.65
2023-05-19T14:25:05.576Z,10.78
2023-05-19T14:28:11.517Z,11.43
2023-05-19T14:31:16.577Z,15.53
2023-05-19T14:34:24.039Z,7.45
2023-05-19T14:37:33.301Z,13.83
2023-05-19T14:40:38.811Z,13.65
2023-05-19T14:43:46.398Z,11.53
2023-05-19T14:46:52.910Z,8.33
2023-05-19T14:49:59.922Z,9.10
2023-05-19T14:53:05.734Z,9.65
2023-05-19T14:56:13.849Z,6.47
2023-05-19T14:59:20.979Z,12.03
2023-05-19T15:02:27.489Z,12.73
2023-05-19T15:05:32.262Z,5.90
2023-05-19T15:08:39.600Z,13.22
2023-05-19T15:11:46.556Z,8.38
2023-05-19T15:14:52.245Z,8.45
2023-05-19T15:17:57.711Z,6.80
2023-05-19T15:21:04.296Z,6.70
2023-05-19T15:24:10.133Z,9.50
2023-05-19T15:27:16.225Z,12.93
2023-05-19T15:30:22.078Z,8.35
2023-05-19T15:33:26.986Z,6.55
2023-05-19T15:36:32.255Z,9.00
2023-05-19T15:39:38.016Z,9.55
2023-05-19T15:42:44.986Z,9.65
2023-05-19T15:45:51.062Z,14.58
2023-05-19T15:48:56.486Z,8.33
2023-05-19T15:52:02.506Z,7.47
2023-05-19T15:55:08.718Z,7.78
2023-05-19T15:58:16.335Z,9.45
2023-05-19T16:01:21.558Z,9.68
2023-05-19T16:04:27.571Z,10.75
2023-05-19T16:07:32.326Z,14.53
2023-05-19T16:10:36.780Z,9.90
2023-05-19T16:13:42.407Z,7.53
2023-05-19T16:16:47.964Z,8.05
2023-05-19T16:19:56.122Z,10.00
2023-05-19T16:23:02.788Z,7.60
2023-05-19T16:26:08.418Z,8.80
2023-05-19T16:29:14.870Z,8.03
2023-05-19T16:32:21.681Z,6.20
2023-05-19T16:35:28.771Z,81.70
2023-05-19T16:38:35.375Z,10.82
2023-05-19T16:41:40.917Z,9.53
2023-05-19T16:44:46.651Z,12.30
2023-05-19T16:47:53.409Z,6.78
2023-05-19T16:51:02.569Z,10.03
2023-05-19T16:54:10.084Z,11.53
2023-05-19T16:57:16.934Z,18.62
2023-05-19T17:00:24.297Z,11.57
2023-05-19T17:03:31.722Z,20.43
2023-05-19T17:06:38.943Z,25.32
2023-05-19T17:09:44.736Z,19.45
2023-05-19T17:12:51.585Z,17.85
2023-05-19T17:15:58.750Z,24.85
2023-05-19T17:19:04.586Z,18.87
2023-05-19T17:22:11.107Z,19.82
2023-05-19T17:25:17.494Z,15.28
2023-05-19T17:28:23.375Z,17.57
2023-05-19T17:31:31.982Z,14.85
2023-05-19T17:34:38.736Z,22.58
2023-05-19T17:37:44.688Z,16.55
2023-05-19T17:40:44.198Z,19.10
2023-05-19T17:43:50.786Z,16.62
2023-05-19T17:46:58.069Z,18.37
2023-05-19T17:50:03.959Z,12.30
2023-05-19T17:53:09.738Z,14.87
2023-05-19T17:56:18.162Z,14.07
2023-05-19T17:59:23.121Z,15.13
2023-05-19T18:02:27.861Z,14.18
2023-05-19T18:05:35.036Z,18.00
2023-05-19T18:08:41.192Z,21.00
2023-05-19T18:11:46.617Z,13.08
2023-05-19T18:14:53.201Z,14.87
2023-05-19T18:17:59.258Z,22.07
2023-05-19T18:21:05.959Z,19.77
2023-05-19T18:24:13.418Z,23.27
2023-05-19T18:27:18.856Z,21.02
2023-05-19T18:30:24.872Z,13.75
2023-05-19T18:33:31.899Z,19.17
2023-05-19T18:36:38.874Z,21.00
2023-05-19T18:39:44.631Z,15.40
2023-05-19T18:42:50.633Z,22.50
2023-05-19T18:45:55.945Z,12.68
2023-05-19T18:49:03.744Z,18.42
2023-05-19T18:52:09.269Z,16.95
2023-05-19T18:55:16.047Z,15.10
2023-05-19T18:58:23.316Z,16.67
2023-05-19T19:01:30.158Z,21.23
2023-05-19T19:04:36.195Z,23.60
2023-05-19T19:07:42.970Z,26.90
2023-05-19T19:10:50.348Z,24.70
2023-05-19T19:14:01.737Z,42.88
2023-05-19T19:17:07.701Z,42.78
2023-05-19T19:20:15.279Z,38.75
2023-05-19T19:23:20.608Z,39.50
2023-05-19T19:26:25.678Z,27.85
2023-05-19T19:29:30.632Z,30.08
2023-05-19T19:32:38.527Z,24.80
2023-05-19T19:35:46.565Z,30.62
2023-05-19T19:38:54.157Z,38.55
2023-05-19T19:42:01.944Z,29.60
2023-05-19T19:45:05.851Z,24.05
2023-05-19T19:47:52.669Z,27.42
2023-05-19T19:50:45.861Z,26.70
2023-05-19T19:53:38.567Z,24.45
2023-05-19T19:56:45.136Z,21.33
2023-05-19T19:59:50.888Z,22.65
2023-05-19T20:03:05.135Z,19.65
2023-05-19T20:06:05.639Z,19.30
2023-05-19T20:09:12.701Z,24.40
2023-05-19T20:12:18.434Z,19.57
2023-05-19T20:15:25.558Z,19.45
2023-05-19T20:18:32.236Z,16.20
2023-05-19T20:21:38.639Z,19.98
2023-05-19T20:24:43.542Z,18.40
2023-05-19T20:27:49.750Z,15.70
2023-05-19T20:30:56.303Z,20.10
2023-05-19T20:34:03.580Z,16.17
2023-05-19T20:37:11.044Z,13.48
2023-05-19T20:40:19.916Z,11.95
2023-05-19T20:43:25.358Z,15.75
2023-05-19T20:46:31.263Z,11.33
2023-05-19T20:49:37.756Z,15.35
2023-05-19T20:52:42.955Z,15.48
2023-05-19T20:55:49.060Z,12.85
2023-05-19T20:58:55.496Z,14.78
2023-05-19T21:02:01.545Z,18.02
2023-05-19T21:05:06.256Z,16.20
2023-05-19T21:08:15.569Z,15.63
2023-05-19T21:11:21.744Z,15.10
2023-05-19T21:14:27.871Z,9.73
2023-05-19T21:17:33.028Z,12.28
2023-05-19T21:20:39.097Z,14.47
2023-05-19T21:23:45.381Z,12.30
2023-05-19T21:26:50.965Z,12.07
2023-05-19T21:29:56.695Z,8.93
2023-05-19T21:33:03.506Z,13.88
2023-05-19T21:36:09.056Z,17.37
2023-05-19T21:39:15.141Z,17.23
2023-05-19T21:42:21.729Z,11.97
2023-05-19T21:45:27.122Z,13.35
2023-05-19T21:48:33.590Z,11.35
2023-05-19T21:51:42.334Z,10.95
2023-05-19T21:54:48.185Z,14.58
2023-05-19T21:57:55.986Z,11.97
2023-05-19T22:01:07.902Z,11.53
2023-05-19T22:04:18.629Z,10.98
2023-05-19T22:07:25.171Z,23.98
2023-05-19T22:10:30.480Z,14.28
2023-05-19T22:13:40.257Z,18.67
2023-05-19T22:16:47.184Z,14.85
2023-05-19T22:19:54.088Z,16.12
2023-05-19T22:23:00.464Z,16.77
2023-05-19T22:26:08.365Z,18.67
2023-05-19T22:29:14.325Z,16.90
2023-05-19T22:32:24.820Z,15.48
2023-05-19T22:35:30.826Z,14.23
2023-05-19T22:38:36.019Z,12.25
2023-05-19T22:41:42.643Z,16.42
2023-05-19T22:44:48.390Z,11.25
2023-05-19T22:47:55.791Z,11.50
2023-05-19T22:51:01.765Z,11.55
2023-05-19T22:54:08.732Z,13.68
2023-05-19T22:57:13.817Z,10.25
2023-05-19T23:00:21.773Z,11.63
2023-05-19T23:03:26.889Z,13.68
2023-05-19T23:06:32.307Z,13.08
2023-05-19T23:09:37.748Z,14.18
2023-05-19T23:12:43.828Z,13.88
2023-05-19T23:15:42.192Z,16.77
2023-05-19T23:18:42.319Z,16.32
2023-05-19T23:21:47.550Z,10.18
2023-05-19T23:24:53.602Z,11.97
2023-05-19T23:28:00.037Z,17.77
2023-05-19T23:31:09.942Z,13.48
2023-05-19T23:34:15.638Z,16.55
2023-05-19T23:37:21.649Z,13.28
2023-05-19T23:40:28.016Z,13.18
2023-05-19T23:43:33.493Z,12.28
2023-05-19T23:46:39.806Z,13.10
2023-05-19T23:49:47.561Z,14.80
2023-05-19T23:52:54.662Z,14.85
2023-05-19T23:56:00.162Z,17.48
2023-05-19T23:59:06.933Z,15.03
